createdAt,value
2022-11-16T00:01:03.752Z,90164.69
2022-11-16T00:03:30.650Z,90150.59
2022-11-16T00:05:57.717Z,90159.25
2022-11-16T00:08:23.986Z,90163.19
2022-11-16T00:10:50.318Z,90162.22
2022-11-16T00:13:16.627Z,90158.53
2022-11-16T00:15:42.912Z,90159.84
2022-11-16T00:18:09.197Z,90167.09
2022-11-16T00:20:35.470Z,90168.00
2022-11-16T00:23:01.732Z,90158.47
2022-11-16T00:25:28.006Z,90164.31
2022-11-16T00:27:54.279Z,90162.13
2022-11-16T00:30:20.551Z,90166.97
2022-11-16T00:32:46.815Z,90170.53
2022-11-16T00:35:13.072Z,90170.66
2022-11-16T00:37:39.351Z,90170.28
2022-11-16T00:40:05.963Z,90170.72
2022-11-16T00:42:32.244Z,90163.28
2022-11-16T00:44:58.514Z,90162.56
2022-11-16T00:47:24.791Z,90169.19
2022-11-16T00:49:51.063Z,90169.75
2022-11-16T00:52:17.344Z,90167.19
2022-11-16T00:54:43.628Z,90161.81
2022-11-16T00:57:09.951Z,90161.22
2022-11-16T00:59:36.215Z,90172.16
2022-11-16T01:02:02.477Z,90161.56
2022-11-16T01:04:28.850Z,90159.66
2022-11-16T01:06:55.209Z,90163.63
2022-11-16T01:09:21.515Z,90164.75
2022-11-16T01:12:06.371Z,90170.88
2022-11-16T01:14:32.640Z,90175.06
2022-11-16T01:16:58.945Z,90185.31
2022-11-16T01:19:25.229Z,90189.63
2022-11-16T01:21:51.494Z,90197.00
2022-11-16T01:24:17.770Z,90190.94
2022-11-16T01:26:44.050Z,90199.72
2022-11-16T01:29:10.342Z,90199.25
2022-11-16T01:31:36.643Z,90205.59
2022-11-16T01:34:02.934Z,90214.38
2022-11-16T01:36:29.204Z,90218.22
2022-11-16T01:38:55.503Z,90214.94
2022-11-16T01:41:22.683Z,90224.22
2022-11-16T01:43:55.050Z,90234.78
2022-11-16T01:46:21.391Z,90238.81
2022-11-16T01:48:47.814Z,90240.25
2022-11-16T01:51:14.093Z,90240.34
2022-11-16T01:53:40.412Z,90250.28
2022-11-16T01:56:08.230Z,90247.91
2022-11-16T01:58:34.772Z,90243.97
2022-11-16T02:01:01.420Z,90251.91
2022-11-16T02:03:27.752Z,90252.63
2022-11-16T02:06:06.362Z,90239.38
2022-11-16T02:08:54.341Z,90231.25
2022-11-16T02:11:27.444Z,90221.69
2022-11-16T02:14:08.905Z,90219.03
2022-11-16T02:16:39.172Z,90218.78
2022-11-16T02:19:20.811Z,90214.00
2022-11-16T02:21:51.277Z,90201.53
2022-11-16T02:24:30.217Z,90194.53
2022-11-16T02:27:07.798Z,90194.16
2022-11-16T02:29:35.325Z,90196.56
2022-11-16T02:32:27.675Z,90196.78
2022-11-16T02:34:53.888Z,90204.94
2022-11-16T02:37:20.646Z,90202.03
2022-11-16T02:39:47.799Z,90207.06
2022-11-16T02:42:15.403Z,90202.13
2022-11-16T02:44:42.507Z,90204.47
2022-11-16T02:47:09.963Z,90206.94
2022-11-16T02:49:36.878Z,90202.75
2022-11-16T02:52:03.156Z,90214.66
2022-11-16T02:54:29.438Z,90206.84
2022-11-16T02:56:57.386Z,90201.44
2022-11-16T02:59:24.260Z,90207.50
2022-11-16T03:02:13.537Z,90209.97
2022-11-16T03:04:41.308Z,90207.13
2022-11-16T03:07:07.623Z,90206.75
2022-11-16T03:09:34.144Z,90205.50
2022-11-16T03:12:00.986Z,90205.94
2022-11-16T03:14:30.227Z,90206.81
2022-11-16T03:16:57.408Z,90199.41
2022-11-16T03:19:25.966Z,90196.63
2022-11-16T03:21:55.564Z,90193.47
2022-11-16T03:24:21.843Z,90194.53
2022-11-16T03:26:53.355Z,90193.72
2022-11-16T03:29:28.822Z,90196.13
2022-11-16T03:31:56.466Z,90196.34
2022-11-16T03:34:22.773Z,90194.16
2022-11-16T03:36:49.070Z,90194.16
2022-11-16T03:39:23.483Z,90180.41
2022-11-16T03:41:49.749Z,90168.69
2022-11-16T03:44:16.017Z,90173.75
2022-11-16T03:46:42.613Z,90169.94
2022-11-16T03:49:08.954Z,90160.25
2022-11-16T03:51:35.283Z,90150.59
2022-11-16T03:54:01.614Z,90141.81
2022-11-16T03:56:27.874Z,90147.25
2022-11-16T03:58:55.895Z,90134.09
2022-11-16T04:01:22.288Z,90117.03
2022-11-16T04:03:48.620Z,90105.69
2022-11-16T04:06:33.407Z,90121.69
2022-11-16T04:09:18.151Z,90132.75
2022-11-16T04:12:02.796Z,90122.25
2022-11-16T04:14:47.677Z,90113.31
2022-11-16T04:17:32.937Z,90128.09
2022-11-16T04:20:17.689Z,90125.66
2022-11-16T04:23:05.615Z,90119.47
2022-11-16T04:25:32.025Z,90086.06
2022-11-16T04:28:13.564Z,90084.28
2022-11-16T04:31:02.097Z,90089.38
2022-11-16T04:33:47.633Z,90086.28
2022-11-16T04:36:32.781Z,90075.09
2022-11-16T04:38:59.037Z,90071.63
2022-11-16T04:41:43.794Z,90071.19
2022-11-16T04:44:10.125Z,90074.72
2022-11-16T04:46:54.723Z,90075.00
2022-11-16T04:49:20.992Z,90058.38
2022-11-16T04:51:47.294Z,90064.22
2022-11-16T04:54:13.587Z,90062.22
2022-11-16T04:56:39.866Z,90070.00
2022-11-16T04:59:06.129Z,90066.41
2022-11-16T05:01:51.213Z,90063.09
2022-11-16T05:04:17.522Z,90069.25
2022-11-16T05:06:43.799Z,90068.41
2022-11-16T05:09:10.079Z,90073.31
2022-11-16T05:11:36.351Z,90079.34
2022-11-16T05:14:02.631Z,90077.91
2022-11-16T05:16:28.919Z,90071.75
2022-11-16T05:19:13.939Z,90073.47
2022-11-16T05:21:40.330Z,90081.47
2022-11-16T05:24:25.163Z,90078.59
2022-11-16T05:26:51.440Z,90086.97
2022-11-16T05:29:17.712Z,90092.31
2022-11-16T05:31:43.974Z,90094.53
2022-11-16T05:34:10.349Z,90102.03
2022-11-16T05:36:36.644Z,90104.66
2022-11-16T05:39:02.931Z,90106.19
2022-11-16T05:41:29.193Z,90106.91
2022-11-16T05:43:55.973Z,90102.63
2022-11-16T05:46:22.603Z,90102.56
2022-11-16T05:48:48.945Z,90101.56
2022-11-16T05:51:15.215Z,90102.25
2022-11-16T05:53:41.479Z,90101.41
2022-11-16T05:56:07.946Z,90106.84
2022-11-16T05:58:34.578Z,90107.78
2022-11-16T06:01:01.018Z,90109.13
2022-11-16T06:03:30.303Z,90112.03
2022-11-16T06:05:56.798Z,90105.69
2022-11-16T06:08:23.105Z,90104.91
2022-11-16T06:10:49.373Z,90108.13
2022-11-16T06:13:15.633Z,90112.91
2022-11-16T06:15:41.895Z,90113.31
2022-11-16T06:18:08.184Z,90106.94
2022-11-16T06:20:34.453Z,90107.03
2022-11-16T06:23:00.731Z,90107.44
2022-11-16T06:25:27.000Z,90110.28
2022-11-16T06:27:53.265Z,90123.00
2022-11-16T06:30:19.556Z,90119.63
2022-11-16T06:32:45.866Z,90122.81
2022-11-16T06:35:12.140Z,90124.75
2022-11-16T06:37:38.414Z,90117.00
2022-11-16T06:40:05.013Z,90117.47
2022-11-16T06:42:31.273Z,90111.50
2022-11-16T06:44:57.550Z,90106.34
2022-11-16T06:47:23.820Z,90106.91
2022-11-16T06:49:50.140Z,90110.91
2022-11-16T06:52:16.427Z,90108.16
2022-11-16T06:54:42.704Z,90114.97
2022-11-16T06:57:08.979Z,90120.78
2022-11-16T06:59:35.424Z,90127.00
2022-11-16T07:02:01.730Z,90129.66
2022-11-16T07:04:28.060Z,90128.53
2022-11-16T07:06:54.387Z,90128.25
2022-11-16T07:09:20.747Z,90137.53
2022-11-16T07:11:47.021Z,90138.13
2022-11-16T07:14:13.482Z,90134.16
2022-11-16T07:16:39.833Z,90130.03
2022-11-16T07:19:06.114Z,90122.41
2022-11-16T07:21:32.433Z,90130.69
2022-11-16T07:23:58.706Z,90129.06
2022-11-16T07:26:25.033Z,90141.41
2022-11-16T07:28:51.307Z,90139.72
2022-11-16T07:31:18.164Z,90146.59
2022-11-16T07:33:44.424Z,90147.13
2022-11-16T07:36:11.829Z,90142.72
2022-11-16T07:38:38.105Z,90145.78
2022-11-16T07:41:11.170Z,90152.09
2022-11-16T07:43:37.694Z,90146.41
2022-11-16T07:46:44.701Z,90144.19
2022-11-16T07:48:54.147Z,90142.97
2022-11-16T07:51:20.414Z,90143.13
2022-11-16T07:53:46.709Z,90143.09
2022-11-16T07:56:13.002Z,90151.81
2022-11-16T07:58:39.386Z,90147.19
2022-11-16T08:01:06.097Z,90146.00
2022-11-16T08:03:32.600Z,90140.22
2022-11-16T08:05:59.924Z,90146.13
2022-11-16T08:08:26.203Z,90144.81
2022-11-16T08:10:52.491Z,90144.28
2022-11-16T08:13:18.769Z,90141.22
2022-11-16T08:15:45.041Z,90139.34
2022-11-16T08:18:11.323Z,90131.72
2022-11-16T08:20:37.594Z,90123.03
2022-11-16T08:23:03.933Z,90132.59
2022-11-16T08:25:30.246Z,90135.22
2022-11-16T08:27:56.523Z,90128.50
2022-11-16T08:30:22.817Z,90132.06
2022-11-16T08:32:49.127Z,90134.31
2022-11-16T08:35:15.470Z,90133.81
2022-11-16T08:37:41.813Z,90138.41
2022-11-16T08:40:08.250Z,90131.50
2022-11-16T08:42:37.247Z,90135.28
2022-11-16T08:45:07.359Z,90134.91
2022-11-16T08:47:33.651Z,90124.19
2022-11-16T08:50:00.033Z,90126.25
2022-11-16T08:52:26.311Z,90141.72
2022-11-16T08:54:52.649Z,90146.41
2022-11-16T08:57:18.920Z,90134.69
2022-11-16T08:59:45.191Z,90139.47
2022-11-16T09:02:11.558Z,90128.69
2022-11-16T09:04:37.886Z,90130.34
2022-11-16T09:07:04.241Z,90128.41
2022-11-16T09:09:30.599Z,90138.75
2022-11-16T09:11:56.870Z,90127.47
2022-11-16T09:14:23.201Z,90130.28
2022-11-16T09:16:49.466Z,90135.56
2022-11-16T09:19:15.867Z,90131.81
2022-11-16T09:21:42.201Z,90125.38
2022-11-16T09:24:08.743Z,90142.47
2022-11-16T09:26:35.016Z,90140.63
2022-11-16T09:29:03.012Z,90138.94
2022-11-16T09:31:29.309Z,90141.72
2022-11-16T09:33:58.130Z,90137.50
2022-11-16T09:36:24.903Z,90132.50
2022-11-16T09:41:53.861Z,90142.50
2022-11-16T09:44:25.872Z,90148.78
2022-11-16T09:46:56.203Z,90141.53
2022-11-16T09:49:26.948Z,90149.63
2022-11-16T09:51:53.874Z,90150.16
2022-11-16T09:54:21.127Z,90150.75
2022-11-16T09:56:47.560Z,90147.50
2022-11-16T09:59:27.232Z,90145.84
2022-11-16T10:02:01.965Z,90149.13
2022-11-16T10:04:43.586Z,90137.91
2022-11-16T10:07:14.895Z,90139.00
2022-11-16T10:09:41.341Z,90133.00
2022-11-16T10:12:10.036Z,90133.84
2022-11-16T10:14:51.897Z,90137.81
2022-11-16T10:17:30.254Z,90146.09
2022-11-16T10:19:57.526Z,90137.34
2022-11-16T10:22:29.856Z,90139.75
2022-11-16T10:25:08.853Z,90136.72
2022-11-16T10:27:42.518Z,90139.13
2022-11-16T10:30:08.888Z,90124.25
2022-11-16T10:32:46.078Z,90126.69
2022-11-16T10:35:15.024Z,90125.44
2022-11-16T10:37:44.221Z,90116.28
2022-11-16T10:40:20.486Z,90119.13
2022-11-16T10:42:48.798Z,90115.16
2022-11-16T10:45:17.496Z,90096.69
2022-11-16T10:47:46.701Z,90089.06
2022-11-16T10:50:16.033Z,90085.44
2022-11-16T10:52:42.304Z,90085.56
2022-11-16T10:55:12.708Z,90080.63
2022-11-16T10:57:58.658Z,90085.19
2022-11-16T11:00:34.666Z,90076.94
2022-11-16T11:03:00.991Z,90072.44
2022-11-16T11:05:27.322Z,90075.91
2022-11-16T11:08:07.647Z,90077.00
2022-11-16T11:10:33.912Z,90061.22
2022-11-16T11:13:04.596Z,90056.19
2022-11-16T11:15:30.909Z,90054.53
2022-11-16T11:18:20.231Z,90035.22
2022-11-16T11:20:47.327Z,90030.22
2022-11-16T11:23:23.834Z,90034.03
2022-11-16T11:25:51.337Z,90032.44
2022-11-16T11:28:28.443Z,90025.00
2022-11-16T11:31:05.582Z,90025.81
2022-11-16T11:33:36.095Z,90036.16
2022-11-16T11:36:04.350Z,90039.00
2022-11-16T11:38:30.921Z,90034.06
2022-11-16T11:41:00.026Z,90025.47
2022-11-16T11:43:26.450Z,90035.72
2022-11-16T11:45:52.675Z,90031.03
2022-11-16T11:48:25.411Z,90035.91
2022-11-16T11:51:01.034Z,90034.28
2022-11-16T11:53:27.276Z,90030.47
2022-11-16T11:55:58.012Z,90023.53
2022-11-16T11:58:31.118Z,90036.25
2022-11-16T12:01:03.338Z,90037.03
2022-11-16T12:03:49.834Z,90029.75
2022-11-16T12:06:48.617Z,90025.94
2022-11-16T12:09:28.014Z,90012.31
2022-11-16T12:11:57.974Z,90009.25
2022-11-16T12:14:34.405Z,89996.72
2022-11-16T12:17:27.032Z,90007.13
2022-11-16T12:20:12.316Z,90004.31
2022-11-16T12:22:41.418Z,90001.69
2022-11-16T12:25:10.711Z,89996.28
2022-11-16T12:27:55.993Z,89986.16
2022-11-16T12:30:22.255Z,89965.66
2022-11-16T12:32:51.911Z,89954.03
2022-11-16T12:35:19.183Z,89948.34
2022-11-16T12:38:04.028Z,89945.47
2022-11-16T12:40:33.350Z,89949.22
2022-11-16T12:43:01.994Z,89943.19
2022-11-16T12:45:32.877Z,89952.03
2022-11-16T12:47:59.178Z,89945.56
2022-11-16T12:50:34.511Z,89946.72
2022-11-16T12:53:00.805Z,89933.84
2022-11-16T12:55:45.383Z,89942.78
2022-11-16T12:58:20.815Z,89941.50
2022-11-16T13:00:59.749Z,89938.78
2022-11-16T13:03:32.460Z,89938.75
2022-11-16T13:06:02.579Z,89941.06
2022-11-16T13:08:35.031Z,89934.34
2022-11-16T13:11:04.769Z,89935.59
2022-11-16T13:13:38.598Z,89932.84
2022-11-16T13:16:05.338Z,89929.13
2022-11-16T13:18:31.824Z,89918.19
2022-11-16T13:20:58.046Z,89916.97
2022-11-16T13:23:30.474Z,89911.31
2022-11-16T13:25:56.684Z,89895.41
2022-11-16T13:28:30.622Z,89894.13
2022-11-16T13:31:04.587Z,89896.78
2022-11-16T13:33:49.325Z,89905.34
2022-11-16T13:36:32.126Z,89901.28
2022-11-16T13:38:58.404Z,89905.56
2022-11-16T13:41:29.136Z,89904.53
2022-11-16T13:43:55.456Z,89900.81
2022-11-16T13:46:53.702Z,89903.47
2022-11-16T13:49:18.848Z,89896.97
2022-11-16T13:51:50.103Z,89891.19
2022-11-16T13:54:44.741Z,89890.47
2022-11-16T13:57:03.880Z,89901.16
2022-11-16T13:59:30.793Z,89905.31
2022-11-16T14:01:58.342Z,89896.75
2022-11-16T14:04:54.525Z,89907.75
2022-11-16T14:07:27.920Z,89903.84
2022-11-16T14:09:54.325Z,89908.81
2022-11-16T14:12:38.998Z,89911.38
2022-11-16T14:15:11.327Z,89910.25
2022-11-16T14:17:49.743Z,89915.13
2022-11-16T14:20:22.094Z,89915.34
2022-11-16T14:23:00.759Z,89920.53
2022-11-16T14:25:31.831Z,89919.59
2022-11-16T14:27:58.065Z,89917.66
2022-11-16T14:30:31.095Z,89904.50
2022-11-16T14:32:57.378Z,89896.53
2022-11-16T14:35:31.875Z,89887.84
2022-11-16T14:38:02.306Z,89895.88
2022-11-16T14:40:28.649Z,89899.19
2022-11-16T14:43:15.831Z,89893.84
2022-11-16T14:45:43.355Z,89894.13
2022-11-16T14:48:14.451Z,89879.16
2022-11-16T14:50:41.640Z,89884.69
2022-11-16T14:53:08.716Z,89883.38
2022-11-16T14:55:40.282Z,89884.59
2022-11-16T14:58:24.437Z,89882.72
2022-11-16T15:00:53.970Z,89877.34
2022-11-16T15:03:21.341Z,89878.00
2022-11-16T15:05:47.718Z,89881.75
2022-11-16T15:08:15.597Z,89890.25
2022-11-16T15:10:45.930Z,89889.09
2022-11-16T15:13:19.542Z,89891.06
2022-11-16T15:15:45.893Z,89893.84
2022-11-16T15:18:13.040Z,89885.66
2022-11-16T15:20:46.630Z,89894.63
2022-11-16T15:23:13.519Z,89896.13
2022-11-16T15:25:43.643Z,89883.47
2022-11-16T15:28:13.901Z,89892.44
2022-11-16T15:30:40.397Z,89899.34
2022-11-16T15:33:16.581Z,89904.66
2022-11-16T15:35:42.861Z,89904.97
2022-11-16T15:38:16.474Z,89905.22
2022-11-16T15:40:42.873Z,89908.31
2022-11-16T15:43:09.681Z,89902.81
2022-11-16T15:45:35.946Z,89895.44
2022-11-16T15:48:03.233Z,89893.69
2022-11-16T15:50:29.578Z,89899.13
2022-11-16T15:52:56.166Z,89897.72
2022-11-16T15:55:33.334Z,89892.22
2022-11-16T15:58:03.990Z,89888.91
2022-11-16T16:00:30.577Z,89882.06
2022-11-16T16:02:59.939Z,89882.53
2022-11-16T16:05:36.647Z,89882.28
2022-11-16T16:08:03.673Z,89880.94
2022-11-16T16:10:29.983Z,89870.81
2022-11-16T16:12:56.759Z,89876.22
2022-11-16T16:15:26.048Z,89871.34
2022-11-16T16:17:55.563Z,89884.84
2022-11-16T16:20:22.649Z,89876.03
2022-11-16T16:22:48.966Z,89884.03
2022-11-16T16:25:28.531Z,89889.13
2022-11-16T16:27:54.818Z,89884.75
2022-11-16T16:30:21.163Z,89891.81
2022-11-16T16:32:48.201Z,89878.66
2022-11-16T16:35:18.472Z,89877.38
2022-11-16T16:37:44.801Z,89886.50
2022-11-16T16:40:11.120Z,89878.81
2022-11-16T16:42:37.466Z,89884.84
2022-11-16T16:45:03.812Z,89869.13
2022-11-16T16:47:30.235Z,89871.19
2022-11-16T16:49:56.499Z,89871.19
2022-11-16T16:52:23.103Z,89877.00
2022-11-16T16:54:49.380Z,89886.81
2022-11-16T16:57:15.916Z,89887.34
2022-11-16T16:59:44.873Z,89892.53
2022-11-16T17:02:11.671Z,89884.03
2022-11-16T17:04:38.031Z,89888.16
2022-11-16T17:07:04.329Z,89894.72
2022-11-16T17:09:30.669Z,89893.03
2022-11-16T17:11:56.953Z,89888.19
2022-11-16T17:14:24.497Z,89890.69
2022-11-16T17:16:51.194Z,89888.13
2022-11-16T17:19:17.558Z,89891.78
2022-11-16T17:21:43.915Z,89899.00
2022-11-16T17:24:10.244Z,89909.44
2022-11-16T17:26:36.668Z,89905.91
2022-11-16T17:29:02.938Z,89910.28
2022-11-16T17:31:29.211Z,89908.88
2022-11-16T17:33:57.323Z,89907.31
2022-11-16T17:36:23.597Z,89901.25
2022-11-16T17:38:49.936Z,89904.97
2022-11-16T17:41:19.413Z,89900.19
2022-11-16T17:43:45.891Z,89909.69
2022-11-16T17:46:12.980Z,89906.66
2022-11-16T17:48:39.891Z,89901.56
2022-11-16T17:51:06.287Z,89893.59
2022-11-16T17:53:33.180Z,89899.31
2022-11-16T17:55:59.500Z,89883.16
2022-11-16T17:58:25.794Z,89881.41
2022-11-16T18:00:52.135Z,89870.22
2022-11-16T18:03:18.546Z,89870.66
2022-11-16T18:05:44.809Z,89867.97
2022-11-16T18:08:11.076Z,89866.19
2022-11-16T18:10:37.992Z,89853.06
2022-11-16T18:13:06.537Z,89852.56
2022-11-16T18:15:37.765Z,89860.19
2022-11-16T18:18:07.205Z,89859.16
2022-11-16T18:20:35.080Z,89862.28
2022-11-16T18:23:01.386Z,89863.56
2022-11-16T18:25:27.690Z,89858.72
2022-11-16T18:27:59.876Z,89856.25
2022-11-16T18:30:26.146Z,89860.97
2022-11-16T18:32:52.460Z,89860.84
2022-11-16T18:35:18.787Z,89865.56
2022-11-16T18:37:45.105Z,89869.59
2022-11-16T18:40:12.042Z,89860.03
2022-11-16T18:42:38.645Z,89853.25
2022-11-16T18:45:05.138Z,89833.91
2022-11-16T18:47:31.545Z,89836.28
2022-11-16T18:49:57.829Z,89841.31
2022-11-16T18:52:24.172Z,89834.69
2022-11-16T18:54:50.507Z,89834.09
2022-11-16T18:57:16.793Z,89841.59
2022-11-16T18:59:43.078Z,89847.16
2022-11-16T19:02:11.185Z,89849.34
2022-11-16T19:04:39.915Z,89846.34
2022-11-16T19:07:06.977Z,89859.16
2022-11-16T19:09:33.312Z,89856.19
2022-11-16T19:11:59.608Z,89847.59
2022-11-16T19:14:25.893Z,89856.66
2022-11-16T19:16:56.971Z,89850.59
2022-11-16T19:19:24.181Z,89842.44
2022-11-16T19:21:51.772Z,89847.84
2022-11-16T19:24:18.060Z,89850.84
2022-11-16T19:26:44.440Z,89862.00
2022-11-16T19:29:10.724Z,89856.34
2022-11-16T19:31:37.031Z,89854.81
2022-11-16T19:34:05.030Z,89836.50
2022-11-16T19:36:31.716Z,89829.13
2022-11-16T19:38:57.978Z,89835.28
2022-11-16T19:41:24.262Z,89829.94
2022-11-16T19:43:56.896Z,89835.25
2022-11-16T19:46:24.347Z,89841.72
2022-11-16T19:48:50.930Z,89831.75
2022-11-16T19:51:43.529Z,89836.53
2022-11-16T19:54:13.720Z,89838.56
2022-11-16T19:56:40.152Z,89838.75
2022-11-16T19:59:06.442Z,89835.25
2022-11-16T20:01:32.762Z,89828.84
2022-11-16T20:03:59.647Z,89834.22
2022-11-16T20:06:28.020Z,89850.09
2022-11-16T20:09:01.976Z,89848.41
2022-11-16T20:11:28.835Z,89839.25
2022-11-16T20:13:55.709Z,89828.38
2022-11-16T20:16:26.166Z,89836.88
2022-11-16T20:18:52.455Z,89837.53
2022-11-16T20:21:22.662Z,89839.78
2022-11-16T20:23:49.260Z,89824.78
2022-11-16T20:26:15.556Z,89810.34
2022-11-16T20:28:42.705Z,89809.16
2022-11-16T20:31:10.816Z,89801.13
2022-11-16T20:33:37.414Z,89806.41
2022-11-16T20:36:04.457Z,89806.19
2022-11-16T20:38:34.042Z,89799.47
2022-11-16T20:41:26.434Z,89789.06
2022-11-16T20:43:53.777Z,89801.44
2022-11-16T20:46:20.588Z,89802.25
2022-11-16T20:48:46.862Z,89805.44
2022-11-16T20:51:14.554Z,89804.91
2022-11-16T20:53:40.862Z,89793.41
2022-11-16T20:56:10.088Z,89800.41
2022-11-16T20:58:36.579Z,89790.75
2022-11-16T21:01:06.575Z,89787.13
2022-11-16T21:03:33.245Z,89787.63
2022-11-16T21:05:59.768Z,89799.16
2022-11-16T21:08:26.045Z,89802.75
2022-11-16T21:10:52.556Z,89799.31
2022-11-16T21:13:38.015Z,89800.69
2022-11-16T21:16:05.527Z,89795.63
2022-11-16T21:18:31.789Z,89789.94
2022-11-16T21:21:01.504Z,89788.44
2022-11-16T21:23:28.022Z,89786.28
2022-11-16T21:25:54.428Z,89790.19
2022-11-16T21:28:25.307Z,89796.97
2022-11-16T21:30:55.940Z,89795.06
2022-11-16T21:33:22.260Z,89788.66
2022-11-16T21:35:48.539Z,89782.13
2022-11-16T21:38:14.832Z,89786.22
2022-11-16T21:40:41.104Z,89774.81
2022-11-16T21:43:07.379Z,89776.66
2022-11-16T21:45:35.107Z,89774.66
2022-11-16T21:48:01.385Z,89773.53
2022-11-16T21:50:32.151Z,89773.44
2022-11-16T21:52:59.750Z,89781.22
2022-11-16T21:55:26.120Z,89776.69
2022-11-16T21:57:52.390Z,89769.31
2022-11-16T22:00:19.115Z,89757.09
2022-11-16T22:02:45.402Z,89760.00
2022-11-16T22:05:30.457Z,89777.72
2022-11-16T22:07:56.724Z,89777.03
2022-11-16T22:10:22.983Z,89768.47
2022-11-16T22:12:49.257Z,89770.75
2022-11-16T22:15:15.608Z,89777.16
2022-11-16T22:17:45.023Z,89771.66
2022-11-16T22:20:11.472Z,89764.59
2022-11-16T22:22:37.754Z,89760.47
2022-11-16T22:25:04.380Z,89758.16
2022-11-16T22:27:30.663Z,89767.81
2022-11-16T22:29:56.971Z,89758.13
2022-11-16T22:32:23.432Z,89742.19
2022-11-16T22:34:51.243Z,89756.56
2022-11-16T22:37:17.640Z,89757.94
2022-11-16T22:39:44.100Z,89769.44
2022-11-16T22:42:11.343Z,89772.16
2022-11-16T22:44:37.626Z,89774.72
2022-11-16T22:47:03.892Z,89781.81
2022-11-16T22:49:30.161Z,89778.81
2022-11-16T22:51:56.426Z,89774.91
2022-11-16T22:54:28.351Z,89780.56
2022-11-16T22:56:54.974Z,89783.22
2022-11-16T22:59:21.239Z,89788.06
2022-11-16T23:01:47.513Z,89788.28
2022-11-16T23:04:13.815Z,89787.47
2022-11-16T23:06:40.291Z,89799.53
2022-11-16T23:09:06.761Z,89802.75
2022-11-16T23:11:51.435Z,89809.22
2022-11-16T23:14:36.581Z,89813.13
2022-11-16T23:17:02.894Z,89810.13
2022-11-16T23:19:47.981Z,89817.59
2022-11-16T23:22:33.741Z,89820.56
2022-11-16T23:25:18.628Z,89817.94
2022-11-16T23:28:02.101Z,89817.47
2022-11-16T23:30:28.442Z,89810.47
2022-11-16T23:32:54.747Z,89808.03
2022-11-16T23:35:21.095Z,89800.34
2022-11-16T23:38:00.240Z,89786.44
2022-11-16T23:40:27.372Z,89803.31
2022-11-16T23:43:12.122Z,89796.78
2022-11-16T23:45:38.680Z,89794.81
2022-11-16T23:48:05.736Z,89793.22
2022-11-16T23:50:32.035Z,89793.00
2022-11-16T23:52:58.319Z,89793.22
2022-11-16T23:55:24.623Z,89785.63
2022-11-16T23:57:50.978Z,89781.38
